Time;durP1;ratioP1;P1;durP2;ratioP2;P2;SDS_P1;SDS_P2;PMS_P1;PMS_P2;Temp;Humidity;BMP_temperature;BMP_pressure;BME280_temperature;BME280_humidity;BME280_pressure;Samples;Min_cycle;Max_cycle;Signal;HPM_P1;HPM_P2
2023/04/14 00:02:23;;;;;;;4.78;3.45;;;7.00;99.90;;;;;;6066269;23;20672;-62
2023/04/14 00:04:53;;;;;;;4.22;2.97;;;7.00;99.90;;;;;;6060553;23;20557;-63
2023/04/14 00:07:20;;;;;;;4.75;3.10;;;7.10;99.90;;;;;;6079598;23;20193;-62
2023/04/14 00:09:47;;;;;;;7.80;3.30;;;7.10;99.90;;;;;;6065045;23;20244;-62
2023/04/14 00:12:14;;;;;;;4.07;2.65;;;7.20;99.90;;;;;;6061403;23;20292;-62
2023/04/14 00:14:42;;;;;;;4.25;2.95;;;7.20;99.90;;;;;;6053183;23;20288;-62
2023/04/14 00:17:09;;;;;;;5.55;3.00;;;7.20;99.90;;;;;;6061539;23;20283;-62
2023/04/14 00:19:36;;;;;;;5.53;3.17;;;7.20;99.90;;;;;;6059036;23;20201;-62
2023/04/14 00:22:04;;;;;;;3.38;3.00;;;7.20;99.90;;;;;;6079157;23;20237;-62
2023/04/14 00:24:32;;;;;;;4.97;3.25;;;7.20;99.90;;;;;;6067360;23;20201;-62
2023/04/14 00:27:00;;;;;;;4.57;3.30;;;7.20;99.90;;;;;;6046987;23;20285;-62
2023/04/14 00:29:26;;;;;;;4.38;3.08;;;7.10;99.90;;;;;;6051888;23;20574;-63
2023/04/14 00:31:54;;;;;;;4.38;3.28;;;7.20;99.90;;;;;;6057535;23;20290;-62
2023/04/14 00:34:21;;;;;;;3.28;2.97;;;7.20;99.90;;;;;;6056477;23;20190;-62
2023/04/14 00:36:48;;;;;;;4.90;2.60;;;7.20;99.90;;;;;;6061510;23;20601;-62
2023/04/14 00:39:17;;;;;;;3.85;2.78;;;7.20;99.90;;;;;;6047241;23;20616;-63
2023/04/14 00:41:45;;;;;;;5.50;3.50;;;7.10;99.90;;;;;;6062671;23;20301;-62
2023/04/14 00:44:12;;;;;;;4.00;3.10;;;7.20;99.90;;;;;;6074163;23;20196;-62
2023/04/14 00:46:40;;;;;;;5.43;3.05;;;7.10;99.90;;;;;;6054859;23;20642;-62
2023/04/14 00:49:08;;;;;;;5.38;2.90;;;7.10;99.90;;;;;;6057416;23;20197;-62
2023/04/14 00:51:36;;;;;;;5.15;3.00;;;7.10;99.90;;;;;;6059604;23;20189;-62
2023/04/14 00:54:07;;;;;;;5.22;2.70;;;7.40;99.90;;;;;;6062230;23;20189;-62
2023/04/14 00:56:35;;;;;;;6.57;2.92;;;7.10;99.90;;;;;;6066939;23;20324;-62
2023/04/14 00:59:03;;;;;;;5.15;3.30;;;7.00;99.90;;;;;;6058139;23;20227;-63
2023/04/14 01:01:32;;;;;;;4.55;3.05;;;7.30;99.90;;;;;;6034242;23;20304;-62
2023/04/14 01:04:00;;;;;;;4.60;3.13;;;7.10;99.90;;;;;;6072909;23;20270;-62
2023/04/14 01:06:27;;;;;;;5.13;3.10;;;6.90;99.90;;;;;;6066920;23;20194;-62
2023/04/14 01:08:56;;;;;;;4.00;2.90;;;6.90;99.90;;;;;;6056641;23;20714;-62
2023/04/14 01:11:31;;;;;;;5.32;2.85;;;6.90;99.90;;;;;;6054371;23;20191;-62
2023/04/14 01:14:12;;;;;;;4.15;3.05;;;6.80;99.90;;;;;;6058786;23;20238;-62
2023/04/14 01:16:41;;;;;;;4.55;3.10;;;6.60;99.90;;;;;;6067729;23;20201;-62
2023/04/14 01:19:23;;;;;;;4.70;2.88;;;6.50;99.90;;;;;;6054435;23;20217;-62
2023/04/14 01:21:52;;;;;;;3.80;3.00;;;6.50;99.90;;;;;;6055708;23;20227;-62
2023/04/14 01:24:36;;;;;;;4.43;3.15;;;6.40;99.90;;;;;;6063495;23;20197;-62
2023/04/14 01:27:24;;;;;;;4.80;4.05;;;6.40;99.90;;;;;;6060993;23;20593;-62
2023/04/14 01:30:21;;;;;;;6.32;4.72;;;6.70;99.90;;;;;;6056724;23;20221;-62
2023/04/14 01:32:53;;;;;;;5.68;4.50;;;6.30;99.90;;;;;;6063934;23;20223;-62
2023/04/14 01:35:31;;;;;;;5.25;4.60;;;6.20;99.90;;;;;;6060380;23;20200;-62
2023/04/14 01:38:04;;;;;;;5.57;4.72;;;6.20;99.90;;;;;;6058104;23;20189;-62
2023/04/14 01:40:34;;;;;;;6.00;3.85;;;6.20;99.90;;;;;;6057598;23;20224;-62
2023/04/14 01:43:05;;;;;;;5.95;5.10;;;6.10;99.90;;;;;;6055653;23;20208;-62
2023/04/14 01:45:38;;;;;;;5.88;5.35;;;6.10;99.90;;;;;;6055496;23;20224;-62
2023/04/14 01:48:07;;;;;;;5.70;5.20;;;5.90;99.90;;;;;;6055140;23;20641;-62
2023/04/14 01:50:36;;;;;;;6.22;5.60;;;5.90;99.90;;;;;;6056757;23;20203;-62
2023/04/14 01:53:06;;;;;;;6.80;6.13;;;5.80;99.90;;;;;;6062864;23;20212;-62
2023/04/14 01:55:36;;;;;;;6.50;5.90;;;5.80;99.90;;;;;;6058945;23;20637;-62
2023/04/14 01:58:05;;;;;;;9.05;6.57;;;5.80;99.90;;;;;;6058644;23;20225;-62
2023/04/14 02:00:34;;;;;;;6.30;5.80;;;5.70;99.90;;;;;;6056841;23;20295;-62
2023/04/14 02:03:03;;;;;;;6.63;5.95;;;5.70;99.90;;;;;;6064496;23;20213;-62
2023/04/14 02:05:33;;;;;;;7.70;6.90;;;5.70;99.90;;;;;;6068636;23;20192;-62
2023/04/14 02:08:01;;;;;;;8.55;7.18;;;5.70;99.90;;;;;;6062890;23;20188;-62
2023/04/14 02:10:29;;;;;;;7.10;6.40;;;5.70;99.90;;;;;;6063292;23;20200;-62
2023/04/14 02:12:58;;;;;;;10.20;7.07;;;5.70;99.90;;;;;;6058874;23;20208;-62
2023/04/14 02:15:27;;;;;;;7.03;6.30;;;5.60;99.90;;;;;;6057990;23;20239;-62
2023/04/14 02:17:57;;;;;;;7.75;7.05;;;5.60;99.90;;;;;;6061296;23;20236;-62
2023/04/14 02:20:27;;;;;;;7.85;7.10;;;5.60;99.90;;;;;;6054891;23;20276;-62
2023/04/14 02:22:56;;;;;;;6.05;5.50;;;5.60;99.90;;;;;;6069283;23;20267;-62
2023/04/14 02:25:26;;;;;;;7.18;6.55;;;5.50;99.90;;;;;;6055759;23;20197;-63
2023/04/14 02:27:56;;;;;;;6.43;5.93;;;5.60;99.90;;;;;;6065442;23;20232;-62
2023/04/14 02:30:29;;;;;;;5.47;4.97;;;5.50;99.90;;;;;;6057280;23;20259;-62
2023/04/14 02:33:01;;;;;;;4.90;4.50;;;5.50;99.90;;;;;;6032288;23;20637;-62
2023/04/14 02:35:36;;;;;;;7.50;4.28;;;5.50;99.90;;;;;;6055494;23;20307;-62
2023/04/14 02:38:10;;;;;;;5.68;4.05;;;5.50;99.90;;;;;;6056521;23;20192;-62
2023/04/14 02:40:41;;;;;;;7.35;3.95;;;5.60;99.90;;;;;;6057618;23;20216;-62
2023/04/14 02:43:16;;;;;;;4.78;3.53;;;5.60;99.90;;;;;;6061888;23;20236;-62
2023/04/14 02:45:47;;;;;;;4.22;3.40;;;5.60;99.90;;;;;;6074525;23;20578;-62
2023/04/14 02:48:17;;;;;;;3.92;3.53;;;6.00;99.90;;;;;;6085672;23;20188;-62
2023/04/14 02:50:48;;;;;;;4.35;3.40;;;5.70;99.90;;;;;;6050365;23;21873;-62
2023/04/14 02:53:22;;;;;;;3.95;3.00;;;5.70;99.90;;;;;;6052507;23;20209;-62
2023/04/14 02:55:50;;;;;;;6.68;3.45;;;5.70;99.90;;;;;;6032959;23;20186;-62
2023/04/14 02:58:19;;;;;;;7.35;3.30;;;5.80;99.90;;;;;;6050964;23;20287;-62
2023/04/14 03:00:49;;;;;;;7.10;3.88;;;5.40;99.90;;;;;;6070740;23;20348;-62
2023/04/14 03:03:17;;;;;;;6.13;3.00;;;5.90;99.90;;;;;;6059199;23;20259;-62
2023/04/14 03:05:47;;;;;;;6.20;3.17;;;5.90;99.90;;;;;;6059174;23;20208;-62
2023/04/14 03:08:16;;;;;;;5.28;3.20;;;6.00;99.90;;;;;;6058399;23;20193;-62
2023/04/14 03:10:45;;;;;;;4.65;2.95;;;6.00;99.90;;;;;;6055888;23;20260;-62
2023/04/14 03:13:14;;;;;;;7.22;3.03;;;6.00;99.90;;;;;;6052835;23;20261;-62
2023/04/14 03:15:42;;;;;;;4.32;2.95;;;6.00;99.90;;;;;;6040008;23;20196;-62
2023/04/14 03:18:10;;;;;;;5.50;2.85;;;6.00;99.90;;;;;;6060728;23;20269;-62
2023/04/14 03:20:40;;;;;;;6.45;3.30;;;6.30;99.90;;;;;;6055940;23;20221;-62
2023/04/14 03:23:10;;;;;;;5.65;3.30;;;6.00;99.90;;;;;;6063929;23;20227;-62
2023/04/14 03:25:40;;;;;;;7.13;3.67;;;6.00;99.90;;;;;;6059771;23;20731;-62
2023/04/14 03:28:12;;;;;;;4.88;2.90;;;6.00;99.90;;;;;;6054961;23;20189;-62
2023/04/14 03:30:43;;;;;;;8.27;3.30;;;6.00;99.90;;;;;;6062329;23;20216;-62
2023/04/14 03:33:16;;;;;;;5.70;3.30;;;5.90;99.90;;;;;;6058508;23;20649;-62
2023/04/14 03:35:46;;;;;;;4.78;3.00;;;5.90;99.90;;;;;;6062466;23;20196;-62
2023/04/14 03:38:16;;;;;;;8.05;3.30;;;5.90;99.90;;;;;;6057597;23;20204;-62
2023/04/14 03:40:47;;;;;;;3.65;3.10;;;5.90;99.90;;;;;;6056122;23;20243;-62
2023/04/14 03:43:18;;;;;;;5.70;3.10;;;6.30;99.90;;;;;;6059060;23;20236;-63
2023/04/14 03:45:47;;;;;;;6.22;3.47;;;5.90;99.90;;;;;;6060887;23;20188;-62
2023/04/14 03:48:18;;;;;;;5.90;2.92;;;5.90;99.90;;;;;;6060432;23;20196;-62
2023/04/14 03:50:50;;;;;;;4.90;3.13;;;6.00;99.90;;;;;;6057242;23;20268;-62
2023/04/14 03:53:19;;;;;;;7.65;3.50;;;6.00;99.90;;;;;;6059063;23;21683;-62
2023/04/14 03:55:51;;;;;;;5.07;2.65;;;5.90;99.90;;;;;;6058210;23;20271;-62
2023/04/14 03:58:21;;;;;;;5.25;3.38;;;6.00;99.90;;;;;;6053158;23;20188;-62
2023/04/14 04:00:49;;;;;;;7.25;3.05;;;6.00;99.90;;;;;;6072018;23;20294;-62
2023/04/14 04:03:16;;;;;;;6.90;2.92;;;6.40;99.90;;;;;;6085412;23;20611;-62
2023/04/14 04:05:44;;;;;;;5.90;2.90;;;6.00;99.90;;;;;;6061130;23;20279;-62
2023/04/14 04:08:12;;;;;;;3.30;2.75;;;6.00;99.90;;;;;;6059958;23;20189;-62
2023/04/14 04:10:41;;;;;;;8.65;3.38;;;6.00;99.90;;;;;;6061250;23;20192;-62
2023/04/14 04:13:12;;;;;;;5.28;3.20;;;6.00;99.90;;;;;;6058901;23;20442;-63
2023/04/14 04:15:41;;;;;;;8.18;3.22;;;6.00;99.90;;;;;;6032151;23;20190;-62
2023/04/14 04:18:15;;;;;;;7.00;3.20;;;5.90;99.90;;;;;;6057974;23;20227;-62
2023/04/14 04:20:43;;;;;;;4.55;2.80;;;5.90;99.90;;;;;;6056818;23;20188;-62
2023/04/14 04:23:11;;;;;;;6.57;3.25;;;5.90;99.90;;;;;;6063987;23;20225;-62
2023/04/14 04:25:40;;;;;;;6.15;3.42;;;5.90;99.90;;;;;;6059162;23;20216;-62
2023/04/14 04:28:08;;;;;;;6.72;2.90;;;5.80;99.90;;;;;;6056896;23;20222;-62
2023/04/14 04:30:40;;;;;;;6.20;2.70;;;5.80;99.90;;;;;;6068075;23;20242;-62
2023/04/14 04:33:08;;;;;;;4.70;2.95;;;5.70;99.90;;;;;;6069507;23;20219;-62
2023/04/14 04:35:36;;;;;;;6.28;3.45;;;5.60;99.90;;;;;;6058023;23;20192;-62
2023/04/14 04:38:04;;;;;;;6.97;2.70;;;5.90;99.90;;;;;;6059634;23;20189;-62
2023/04/14 04:40:36;;;;;;;7.03;2.95;;;5.50;99.90;;;;;;6066039;23;20192;-62
2023/04/14 04:43:03;;;;;;;5.40;3.22;;;5.50;99.90;;;;;;6060660;23;20576;-62
2023/04/14 04:45:51;;;;;;;7.20;3.00;;;5.40;99.90;;;;;;6053457;23;20188;-63
2023/04/14 04:48:19;;;;;;;5.47;2.80;;;5.40;99.90;;;;;;6051854;23;20201;-62
2023/04/14 04:50:46;;;;;;;7.50;3.00;;;5.70;99.90;;;;;;6056784;23;20195;-62
2023/04/14 04:53:13;;;;;;;6.28;3.20;;;5.40;99.90;;;;;;6054576;23;20266;-62
2023/04/14 04:55:41;;;;;;;7.00;3.55;;;5.40;99.90;;;;;;6057477;23;20220;-62
2023/04/14 04:58:08;;;;;;;5.28;3.20;;;5.40;99.90;;;;;;6049055;23;20283;-62
2023/04/14 05:00:35;;;;;;;6.60;3.53;;;5.40;99.90;;;;;;6053168;23;20272;-62
2023/04/14 05:03:04;;;;;;;5.45;2.97;;;5.40;99.90;;;;;;6059932;23;20307;-62
2023/04/14 05:05:36;;;;;;;8.02;3.83;;;5.40;99.90;;;;;;6058363;23;20620;-62
2023/04/14 05:08:03;;;;;;;11.45;4.30;;;5.40;99.90;;;;;;6066220;23;20192;-62
2023/04/14 05:10:30;;;;;;;6.05;3.97;;;5.40;99.90;;;;;;6057342;23;20192;-62
2023/04/14 05:12:57;;;;;;;7.90;3.97;;;5.40;99.90;;;;;;6054108;23;20557;-62
2023/04/14 05:15:24;;;;;;;6.80;3.45;;;5.40;99.90;;;;;;6056768;23;20196;-62
2023/04/14 05:17:51;;;;;;;7.63;3.08;;;5.40;99.90;;;;;;6063069;23;20192;-62
2023/04/14 05:20:20;;;;;;;8.00;5.30;;;5.40;99.90;;;;;;6060330;23;20275;-63
2023/04/14 05:22:47;;;;;;;4.45;3.63;;;5.40;99.90;;;;;;6059767;23;21674;-62
2023/04/14 05:25:14;;;;;;;6.30;3.50;;;5.50;99.90;;;;;;6068682;23;20219;-62
2023/04/14 05:27:41;;;;;;;6.55;3.55;;;5.50;99.90;;;;;;6054194;23;20530;-62
2023/04/14 05:30:10;;;;;;;5.47;3.08;;;5.50;99.90;;;;;;6035891;23;20220;-62
2023/04/14 05:32:37;;;;;;;5.85;3.38;;;5.50;99.90;;;;;;6052702;23;20648;-62
2023/04/14 05:35:05;;;;;;;5.38;2.70;;;5.60;99.90;;;;;;6048696;23;20192;-64
2023/04/14 05:37:34;;;;;;;7.00;3.10;;;5.60;99.90;;;;;;6044639;23;20185;-63
2023/04/14 05:40:02;;;;;;;5.90;3.10;;;5.80;99.90;;;;;;6053288;23;20272;-62
2023/04/14 05:42:29;;;;;;;7.10;3.40;;;5.90;99.90;;;;;;6048848;23;20228;-65
2023/04/14 05:44:56;;;;;;;4.95;3.10;;;6.10;99.90;;;;;;6057451;23;20259;-66
2023/04/14 05:47:24;;;;;;;5.40;3.15;;;6.20;99.90;;;;;;6051662;23;20182;-62
2023/04/14 05:49:51;;;;;;;7.30;2.70;;;6.20;99.90;;;;;;6054119;23;20228;-62
2023/04/14 05:52:18;;;;;;;4.78;2.63;;;6.30;99.90;;;;;;6047445;23;20336;-62
2023/04/14 05:54:46;;;;;;;5.60;2.45;;;6.40;99.90;;;;;;6057068;23;20649;-62
2023/04/14 05:57:13;;;;;;;5.10;3.42;;;6.40;99.90;;;;;;6057838;23;20185;-61
2023/04/14 05:59:41;;;;;;;5.00;2.47;;;6.50;99.90;;;;;;6049556;23;20905;-62
2023/04/14 06:02:08;;;;;;;5.53;3.20;;;6.50;99.90;;;;;;6052773;23;20270;-62
2023/04/14 06:04:35;;;;;;;5.78;2.70;;;6.60;99.90;;;;;;6032759;23;20771;-63
2023/04/14 06:07:02;;;;;;;4.85;2.70;;;6.70;99.90;;;;;;6040531;23;20248;-62
2023/04/14 06:09:30;;;;;;;7.30;3.03;;;6.80;99.90;;;;;;6056675;23;22150;-62
2023/04/14 06:11:58;;;;;;;5.60;2.63;;;6.90;99.90;;;;;;6046813;23;20292;-63
2023/04/14 06:14:25;;;;;;;3.92;2.40;;;7.00;99.90;;;;;;6051353;23;20198;-63
2023/04/14 06:16:52;;;;;;;5.93;3.10;;;7.10;99.90;;;;;;6057612;23;20688;-62
2023/04/14 06:19:19;;;;;;;3.92;2.70;;;7.20;99.90;;;;;;6055980;23;20265;-63
2023/04/14 06:21:46;;;;;;;6.47;3.60;;;7.30;99.90;;;;;;6043371;23;20298;-62
2023/04/14 06:24:13;;;;;;;6.47;3.05;;;7.50;99.90;;;;;;6048941;23;20190;-62
2023/04/14 06:26:41;;;;;;;3.20;1.98;;;7.60;99.90;;;;;;6056315;23;20201;-63
2023/04/14 06:29:10;;;;;;;4.57;2.70;;;7.70;99.90;;;;;;6058122;23;20268;-63
2023/04/14 06:31:37;;;;;;;4.32;2.22;;;7.80;99.90;;;;;;6041540;23;20208;-62
2023/04/14 06:34:04;;;;;;;4.65;2.20;;;8.00;99.90;;;;;;6039471;23;20274;-63
2023/04/14 06:36:32;;;;;;;4.18;2.00;;;8.10;99.90;;;;;;6045460;23;20280;-63
2023/04/14 06:38:59;;;;;;;5.15;2.88;;;8.30;99.90;;;;;;6049123;23;20243;-63
2023/04/14 06:41:26;;;;;;;6.18;2.40;;;8.60;99.90;;;;;;6041733;23;20211;-64
2023/04/14 06:43:53;;;;;;;5.50;2.78;;;8.60;99.90;;;;;;6041737;23;20216;-63
2023/04/14 06:46:21;;;;;;;6.00;2.47;;;8.70;99.90;;;;;;6055161;23;20203;-64
2023/04/14 06:48:48;;;;;;;4.63;2.63;;;8.90;99.90;;;;;;6048975;23;20220;-63
2023/04/14 06:51:16;;;;;;;4.20;2.33;;;9.00;99.90;;;;;;6054564;23;20205;-63
2023/04/14 06:53:42;;;;;;;5.47;2.65;;;9.20;99.90;;;;;;6058800;23;20199;-63
2023/04/14 06:56:09;;;;;;;4.18;2.40;;;9.40;99.90;;;;;;6051138;23;20637;-63
2023/04/14 06:58:37;;;;;;;5.03;2.60;;;9.60;99.90;;;;;;6059765;23;20188;-63
2023/04/14 07:01:04;;;;;;;5.40;2.10;;;9.80;99.90;;;;;;6063116;23;20214;-63
2023/04/14 07:03:33;;;;;;;5.70;2.28;;;10.00;99.90;;;;;;6057843;23;21015;-63
2023/04/14 07:06:04;;;;;;;2.30;1.90;;;10.20;99.90;;;;;;6053090;23;20264;-63
2023/04/14 07:08:33;;;;;;;5.85;2.40;;;10.40;99.90;;;;;;6057958;23;20220;-63
2023/04/14 07:11:02;;;;;;;4.57;2.30;;;10.70;99.90;;;;;;6058827;23;20212;-63
2023/04/14 07:13:29;;;;;;;3.90;2.10;;;11.00;99.90;;;;;;6053982;23;20660;-63
2023/04/14 07:15:56;;;;;;;3.63;2.20;;;11.30;99.90;;;;;;6058582;23;20193;-63
2023/04/14 07:18:24;;;;;;;5.53;2.20;;;11.50;99.90;;;;;;6058768;23;20460;-63
2023/04/14 07:20:53;;;;;;;4.13;2.37;;;11.80;99.90;;;;;;6059034;23;20499;-63
2023/04/14 07:23:20;;;;;;;3.40;2.30;;;12.10;99.90;;;;;;6050689;23;20475;-63
2023/04/14 07:25:51;;;;;;;6.50;2.13;;;12.30;99.90;;;;;;6054752;23;20450;-63
2023/04/14 07:28:18;;;;;;;5.17;2.27;;;12.30;99.90;;;;;;6061053;23;20432;-63
2023/04/14 07:30:45;;;;;;;6.10;2.10;;;12.40;99.90;;;;;;6056649;23;21105;-63
2023/04/14 07:33:12;;;;;;;3.87;1.77;;;12.40;99.90;;;;;;6060227;23;20532;-63
2023/04/14 07:35:40;;;;;;;4.90;2.00;;;12.50;99.90;;;;;;6049766;23;20492;-63
2023/04/14 07:38:08;;;;;;;3.57;2.30;;;12.60;99.90;;;;;;6054863;23;20428;-63
2023/04/14 07:40:35;;;;;;;4.33;1.67;;;12.70;99.90;;;;;;6054518;23;20530;-64
2023/04/14 07:43:02;;;;;;;3.80;1.83;;;12.70;99.90;;;;;;6054512;23;20528;-64
2023/04/14 07:45:30;;;;;;;3.87;1.83;;;12.70;99.90;;;;;;6048604;23;20440;-63
2023/04/14 07:47:57;;;;;;;3.80;1.97;;;12.70;99.90;;;;;;6040123;23;20524;-63
2023/04/14 07:50:24;;;;;;;3.33;2.07;;;12.80;99.90;;;;;;6036867;23;20512;-63
2023/04/14 07:52:51;;;;;;;4.00;2.10;;;13.10;99.90;;;;;;6043006;23;20528;-62
2023/04/14 07:55:20;;;;;;;7.30;2.50;;;13.10;99.90;;;;;;6049002;23;20531;-63
2023/04/14 07:57:47;;;;;;;4.47;2.40;;;13.30;99.90;;;;;;6040838;23;20464;-63
2023/04/14 08:00:15;;;;;;;5.40;2.53;;;13.50;99.90;;;;;;6040023;23;20438;-62
2023/04/14 08:02:42;;;;;;;4.50;2.17;;;13.80;99.90;;;;;;6048571;23;20487;-63
2023/04/14 08:05:09;;;;;;;3.17;2.20;;;14.00;99.90;;;;;;6039082;23;20436;-62
2023/04/14 08:07:37;;;;;;;3.90;2.17;;;14.10;99.90;;;;;;6041601;23;20436;-62
2023/04/14 08:10:05;;;;;;;5.73;2.00;;;14.30;99.90;;;;;;6037599;23;20482;-62
2023/04/14 08:12:33;;;;;;;3.67;2.00;;;14.60;99.90;;;;;;6050439;23;20462;-63
2023/04/14 08:15:00;;;;;;;3.57;1.97;;;14.80;99.90;;;;;;6027784;23;20517;-62
2023/04/14 08:17:27;;;;;;;6.40;2.67;;;15.10;99.90;;;;;;6052690;23;20932;-62
2023/04/14 08:19:54;;;;;;;7.73;2.37;;;15.40;99.90;;;;;;6060241;23;20526;-62
2023/04/14 08:22:21;;;;;;;4.13;2.40;;;15.60;99.90;;;;;;6052311;23;20641;-64
2023/04/14 08:24:48;;;;;;;2.93;1.50;;;15.80;99.90;;;;;;6050732;23;20474;-63
2023/04/14 08:27:15;;;;;;;5.90;2.47;;;15.90;99.90;;;;;;6050732;23;20466;-62
2023/04/14 08:29:44;;;;;;;4.83;2.00;;;16.10;99.90;;;;;;6054506;23;20506;-62
2023/04/14 08:32:11;;;;;;;5.03;2.17;;;16.30;99.90;;;;;;6042008;23;20455;-62
2023/04/14 08:34:38;;;;;;;2.87;1.97;;;16.50;99.90;;;;;;6048469;23;20436;-63
2023/04/14 08:37:05;;;;;;;3.33;2.07;;;16.60;99.90;;;;;;6049401;23;20428;-62
2023/04/14 08:39:32;;;;;;;4.00;2.47;;;16.80;99.90;;;;;;6055536;23;20483;-62
2023/04/14 08:41:59;;;;;;;4.60;2.33;;;17.10;99.40;;;;;;6058787;23;20553;-62
2023/04/14 08:44:26;;;;;;;5.97;2.10;;;17.20;98.80;;;;;;6056910;23;20541;-62
2023/04/14 08:46:56;;;;;;;3.17;1.73;;;17.20;98.70;;;;;;6057877;23;20438;-62
2023/04/14 08:49:43;;;;;;;5.33;2.13;;;17.40;98.00;;;;;;6054811;23;20436;-62
2023/04/14 08:52:12;;;;;;;4.77;2.30;;;17.30;97.40;;;;;;6045581;23;20529;-62
2023/04/14 08:54:40;;;;;;;5.07;2.50;;;17.10;97.50;;;;;;6047112;23;20448;-62
2023/04/14 08:57:10;;;;;;;3.03;1.90;;;17.30;96.80;;;;;;6046825;23;20460;-62
2023/04/14 08:59:38;;;;;;;4.03;2.30;;;17.30;96.90;;;;;;6047013;23;20497;-62
2023/04/14 09:02:09;;;;;;;4.53;2.63;;;17.40;96.50;;;;;;6046314;23;20460;-62
2023/04/14 09:04:37;;;;;;;5.07;2.00;;;17.40;96.20;;;;;;6052353;23;20552;-62
2023/04/14 09:07:05;;;;;;;4.80;2.20;;;17.50;96.10;;;;;;6050182;23;20446;-62
2023/04/14 09:09:32;;;;;;;3.90;2.10;;;17.60;95.80;;;;;;6042365;23;20446;-62
2023/04/14 09:12:00;;;;;;;4.70;2.30;;;17.80;96.40;;;;;;6050552;23;20455;-62
2023/04/14 09:14:28;;;;;;;3.70;2.27;;;18.00;95.20;;;;;;6052792;23;20518;-62
2023/04/14 09:16:56;;;;;;;2.70;1.93;;;18.40;95.20;;;;;;6033990;23;20524;-62
2023/04/14 09:19:25;;;;;;;3.40;2.10;;;18.30;93.70;;;;;;6047243;23;20440;-62
2023/04/14 09:21:52;;;;;;;4.07;2.10;;;18.10;94.10;;;;;;6054898;23;21042;-62
2023/04/14 09:24:27;;;;;;;6.63;2.60;;;18.10;94.20;;;;;;6047144;23;20711;-62
2023/04/14 09:26:54;;;;;;;3.30;2.20;;;17.80;94.10;;;;;;6037504;23;20794;-62
2023/04/14 09:29:21;;;;;;;5.50;2.47;;;17.40;94.30;;;;;;6042664;23;20437;-62
2023/04/14 09:31:49;;;;;;;6.30;2.30;;;17.10;94.60;;;;;;6044899;23;20583;-62
2023/04/14 09:34:17;;;;;;;4.70;2.20;;;16.80;95.10;;;;;;6032138;23;20447;-62
2023/04/14 09:37:02;;;;;;;3.30;2.10;;;16.60;95.50;;;;;;6042774;23;20772;-62
2023/04/14 09:39:30;;;;;;;4.10;1.97;;;16.80;96.00;;;;;;6046704;23;21159;-62
2023/04/14 09:41:57;;;;;;;4.03;2.10;;;17.40;95.70;;;;;;6044079;23;20462;-62
2023/04/14 09:44:23;;;;;;;4.73;2.10;;;17.50;94.10;;;;;;6041677;23;20791;-63
2023/04/14 09:46:58;;;;;;;4.50;2.47;;;17.50;94.40;;;;;;6027737;23;20439;-62
2023/04/14 09:49:25;;;;;;;6.03;2.47;;;17.50;93.70;;;;;;6040497;23;20490;-62
2023/04/14 09:51:54;;;;;;;5.40;2.27;;;17.60;92.60;;;;;;6043690;23;20542;-62
2023/04/14 09:54:25;;;;;;;4.73;2.17;;;17.50;92.00;;;;;;6052759;23;20431;-62
2023/04/14 09:56:53;;;;;;;3.70;2.00;;;17.60;91.50;;;;;;6039711;23;20515;-62
2023/04/14 09:59:31;;;;;;;5.00;2.37;;;17.80;93.10;;;;;;6044096;23;20443;-63
2023/04/14 10:01:59;;;;;;;5.37;2.57;;;18.30;92.80;;;;;;6044270;23;20466;-62
2023/04/14 10:04:27;;;;;;;3.60;2.13;;;18.60;92.00;;;;;;6055724;23;20474;-62
2023/04/14 10:06:57;;;;;;;4.10;2.10;;;18.50;92.30;;;;;;6050154;23;21378;-63
2023/04/14 10:09:27;;;;;;;7.43;2.60;;;18.40;91.90;;;;;;6051894;23;20954;-62
2023/04/14 10:12:09;;;;;;;5.50;2.10;;;18.70;91.90;;;;;;6053944;23;20482;-63
2023/04/14 10:14:36;;;;;;;4.90;2.37;;;18.90;91.00;;;;;;6054515;23;20520;-62
2023/04/14 10:17:03;;;;;;;4.27;2.10;;;18.70;90.10;;;;;;6059362;23;20460;-62
2023/04/14 10:19:31;;;;;;;4.90;2.17;;;17.60;90.60;;;;;;6046424;23;20468;-62
2023/04/14 10:21:59;;;;;;;3.93;2.37;;;16.80;91.40;;;;;;6056130;23;20534;-62
2023/04/14 10:24:27;;;;;;;4.87;1.90;;;16.90;91.70;;;;;;6058446;23;21100;-63
2023/04/14 10:26:55;;;;;;;3.13;2.10;;;17.00;92.50;;;;;;6053474;23;20522;-63
2023/04/14 10:29:23;;;;;;;4.40;2.10;;;17.30;92.70;;;;;;6055687;23;20492;-63
2023/04/14 10:31:53;;;;;;;5.03;2.50;;;17.50;92.10;;;;;;6039303;23;20493;-63
2023/04/14 10:34:22;;;;;;;4.37;2.27;;;17.40;92.00;;;;;;6051717;23;20435;-66
2023/04/14 10:36:50;;;;;;;4.73;2.20;;;17.10;92.10;;;;;;6041587;23;20444;-65
2023/04/14 10:39:22;;;;;;;3.73;2.00;;;16.80;92.30;;;;;;6047634;23;20489;-66
2023/04/14 10:41:52;;;;;;;5.77;2.60;;;16.90;92.80;;;;;;6048704;23;20470;-66
2023/04/14 10:44:24;;;;;;;5.27;2.40;;;17.40;92.70;;;;;;6052795;23;20467;-66
2023/04/14 10:46:52;;;;;;;6.40;2.50;;;18.10;91.70;;;;;;6025713;23;20451;-66
2023/04/14 10:49:24;;;;;;;4.80;2.00;;;18.40;91.20;;;;;;6043945;23;20436;-66
2023/04/14 10:51:51;;;;;;;3.90;2.10;;;18.30;90.30;;;;;;6041615;23;20469;-66
2023/04/14 10:54:18;;;;;;;4.93;2.13;;;18.10;90.00;;;;;;6050490;23;20467;-67
2023/04/14 10:57:11;;;;;;;3.77;2.30;;;17.70;89.30;;;;;;6049488;23;20431;-63
2023/04/14 10:59:44;;;;;;;2.80;1.60;;;17.60;90.50;;;;;;6040588;23;20560;-63
2023/04/14 11:02:28;;;;;;;4.87;2.40;;;17.80;90.20;;;;;;6035613;23;20456;-62
2023/04/14 11:05:00;;;;;;;3.20;2.40;;;17.50;88.00;;;;;;6052209;23;20478;-62
2023/04/14 11:07:30;;;;;;;3.63;1.80;;;17.30;91.30;;;;;;6050603;23;20440;-63
2023/04/14 11:10:25;;;;;;;4.47;1.90;;;17.70;90.40;;;;;;6048011;23;20478;-62
2023/04/14 11:12:57;;;;;;;4.23;2.10;;;17.60;87.00;;;;;;6050196;23;20441;-62
2023/04/14 11:15:24;;;;;;;4.60;1.70;;;17.50;86.10;;;;;;6059460;23;20518;-63
2023/04/14 11:17:53;;;;;;;4.87;2.10;;;17.80;87.00;;;;;;6050856;23;20811;-62
2023/04/14 11:20:21;;;;;;;3.67;1.70;;;18.60;85.30;;;;;;6052851;23;20465;-63
2023/04/14 11:22:49;;;;;;;2.13;1.50;;;18.70;81.90;;;;;;6045567;23;20498;-62
2023/04/14 11:25:18;;;;;;;5.20;1.80;;;18.80;82.80;;;;;;6057565;23;20963;-63
2023/04/14 11:27:47;;;;;;;4.07;2.17;;;19.10;83.60;;;;;;6059548;23;20434;-63
2023/04/14 11:30:17;;;;;;;2.93;1.90;;;19.80;81.90;;;;;;6052038;23;20534;-63
2023/04/14 11:32:47;;;;;;;4.43;1.70;;;20.60;81.70;;;;;;6058152;23;20445;-63
2023/04/14 11:35:15;;;;;;;4.70;2.03;;;20.90;76.10;;;;;;6042690;23;20471;-63
2023/04/14 11:37:43;;;;;;;6.00;1.60;;;20.90;77.10;;;;;;6046616;23;21072;-63
2023/04/14 11:40:11;;;;;;;3.40;2.03;;;21.40;74.20;;;;;;6058567;23;20443;-62
2023/04/14 11:42:43;;;;;;;2.97;1.60;;;21.70;71.20;;;;;;6049156;23;20440;-62
2023/04/14 11:45:12;;;;;;;3.93;1.87;;;21.90;70.60;;;;;;6055188;23;20578;-64
2023/04/14 11:47:46;;;;;;;3.40;1.50;;;21.90;69.80;;;;;;6053202;23;20445;-63
2023/04/14 11:50:14;;;;;;;2.63;1.40;;;22.00;67.60;;;;;;6059607;23;20443;-79
2023/04/14 11:52:46;;;;;;;2.90;1.57;;;21.60;63.50;;;;;;6058961;23;20463;-63
2023/04/14 11:55:14;;;;;;;3.63;1.80;;;20.80;66.40;;;;;;6060166;23;20527;-63
2023/04/14 11:57:44;;;;;;;6.00;1.90;;;20.60;66.80;;;;;;6049795;23;20436;-62
2023/04/14 12:00:12;;;;;;;2.10;1.53;;;20.80;66.30;;;;;;6055536;23;20931;-63
2023/04/14 12:02:43;;;;;;;3.23;1.90;;;20.80;63.10;;;;;;6061154;23;20540;-63
2023/04/14 12:05:10;;;;;;;2.97;1.40;;;20.40;61.60;;;;;;6063064;23;20469;-63
2023/04/14 12:07:38;;;;;;;5.27;2.10;;;19.70;63.40;;;;;;6053723;23;20446;-62
2023/04/14 12:10:06;;;;;;;4.87;2.13;;;19.40;65.60;;;;;;6057564;23;20450;-63
2023/04/14 12:12:34;;;;;;;3.13;1.70;;;19.40;69.80;;;;;;6060021;23;20518;-63
2023/04/14 12:15:03;;;;;;;5.27;2.40;;;19.20;70.80;;;;;;6057778;23;20434;-63
2023/04/14 12:17:30;;;;;;;3.07;1.80;;;19.20;71.70;;;;;;6058702;23;20440;-63
2023/04/14 12:19:59;;;;;;;3.57;2.00;;;19.60;71.40;;;;;;6058730;23;20489;-63
2023/04/14 12:22:28;;;;;;;2.90;1.80;;;19.90;70.00;;;;;;6059552;23;21024;-63
2023/04/14 12:24:56;;;;;;;3.80;1.87;;;20.00;68.90;;;;;;6058616;23;20540;-63
2023/04/14 12:27:25;;;;;;;3.90;1.60;;;19.80;68.70;;;;;;6062440;23;20443;-63
2023/04/14 12:29:52;;;;;;;3.00;1.73;;;19.40;67.90;;;;;;6044130;23;20436;-63
2023/04/14 12:32:20;;;;;;;3.20;1.50;;;19.10;67.40;;;;;;6062054;23;20463;-63
2023/04/14 12:34:56;;;;;;;3.47;1.60;;;18.80;66.90;;;;;;6064581;23;20451;-65
2023/04/14 12:37:28;;;;;;;3.37;1.73;;;18.40;67.20;;;;;;6066951;23;20518;-62
2023/04/14 12:39:58;;;;;;;3.70;1.70;;;18.10;67.70;;;;;;6062437;23;20451;-76
2023/04/14 12:42:25;;;;;;;1.90;1.27;;;18.40;69.40;;;;;;6039092;23;20954;-63
2023/04/14 12:44:57;;;;;;;4.90;1.57;;;19.00;68.70;;;;;;6054244;23;20489;-62
2023/04/14 12:47:32;;;;;;;3.00;1.50;;;19.90;68.40;;;;;;6046549;23;20435;-63
2023/04/14 12:50:01;;;;;;;4.47;1.90;;;20.80;65.60;;;;;;6053045;23;21024;-62
2023/04/14 12:52:37;;;;;;;3.37;1.80;;;21.10;63.80;;;;;;6054807;23;20470;-63
2023/04/14 12:55:05;;;;;;;2.10;1.73;;;21.00;63.80;;;;;;6050498;23;20933;-63
2023/04/14 12:57:33;;;;;;;2.80;1.60;;;21.20;64.30;;;;;;6054785;23;20462;-63
2023/04/14 13:00:01;;;;;;;4.50;1.90;;;21.50;63.00;;;;;;6059212;23;21029;-63
2023/04/14 13:02:29;;;;;;;4.40;1.70;;;22.00;62.50;;;;;;6048324;23;20435;-63
2023/04/14 13:04:56;;;;;;;3.53;1.60;;;22.10;59.50;;;;;;6057107;23;20850;-63